createdAt,value
2022-11-30T00:00:57.239Z,31.73
2022-11-30T00:03:25.810Z,27.40
2022-11-30T00:05:55.605Z,28.88
2022-11-30T00:08:26.913Z,26.30
2022-11-30T00:10:55.376Z,25.65
2022-11-30T00:13:24.089Z,26.83
2022-11-30T00:15:52.477Z,24.33
2022-11-30T00:18:20.877Z,28.25
2022-11-30T00:20:49.251Z,26.08
2022-11-30T00:23:19.122Z,27.05
2022-11-30T00:25:47.640Z,23.65
2022-11-30T00:28:16.034Z,26.50
2022-11-30T00:30:44.399Z,24.17
2022-11-30T00:33:12.882Z,25.75
2022-11-30T00:35:44.645Z,23.08
2022-11-30T00:38:13.006Z,23.60
2022-11-30T00:40:42.939Z,24.35
2022-11-30T00:43:11.365Z,24.52
2022-11-30T00:45:39.980Z,26.85
2022-11-30T00:48:08.477Z,26.40
2022-11-30T00:50:37.019Z,25.10
2022-11-30T00:53:05.657Z,24.45
2022-11-30T00:55:36.852Z,25.63
2022-11-30T00:58:07.175Z,24.02
2022-11-30T01:00:35.906Z,21.98
2022-11-30T01:03:04.797Z,20.95
2022-11-30T01:05:34.602Z,20.30
2022-11-30T01:08:03.242Z,23.92
2022-11-30T01:10:31.608Z,20.42
2022-11-30T01:13:00.032Z,24.35
2022-11-30T01:15:30.447Z,24.77
2022-11-30T01:18:00.503Z,22.55
2022-11-30T01:20:28.979Z,18.58
2022-11-30T01:22:57.409Z,20.58
2022-11-30T01:25:25.787Z,18.83
2022-11-30T01:27:54.186Z,20.60
2022-11-30T01:30:22.591Z,21.25
2022-11-30T01:32:52.300Z,21.13
2022-11-30T01:35:20.874Z,21.75
2022-11-30T01:37:49.267Z,24.02
2022-11-30T01:40:17.856Z,19.80
2022-11-30T01:42:49.163Z,22.27
2022-11-30T01:45:17.679Z,20.80
2022-11-30T01:47:48.823Z,23.75
2022-11-30T01:50:20.833Z,20.05
2022-11-30T01:52:52.024Z,20.42
2022-11-30T01:55:22.014Z,20.52
2022-11-30T01:57:52.421Z,18.17
2022-11-30T02:00:21.248Z,19.10
2022-11-30T02:02:56.680Z,20.83
2022-11-30T02:05:26.571Z,19.27
2022-11-30T02:07:55.002Z,21.52
2022-11-30T02:10:27.051Z,21.23
2022-11-30T02:13:21.708Z,20.98
2022-11-30T02:15:55.108Z,20.88
2022-11-30T02:18:26.942Z,24.33
2022-11-30T02:21:03.068Z,23.08
2022-11-30T02:23:52.299Z,20.27
2022-11-30T02:26:39.899Z,19.35
2022-11-30T02:29:15.397Z,17.83
2022-11-30T02:31:46.273Z,17.58
2022-11-30T02:34:15.375Z,19.00
2022-11-30T02:36:43.944Z,17.55
2022-11-30T02:39:12.774Z,21.42
2022-11-30T02:41:41.668Z,19.13
2022-11-30T02:44:12.346Z,18.15
2022-11-30T02:46:54.111Z,19.67
2022-11-30T02:49:28.190Z,19.75
2022-11-30T02:51:56.775Z,19.10
2022-11-30T02:54:25.766Z,19.45
2022-11-30T02:56:54.197Z,19.65
2022-11-30T02:59:24.056Z,18.73
2022-11-30T03:01:52.660Z,18.80
2022-11-30T03:04:21.001Z,15.95
2022-11-30T03:06:50.056Z,18.73
2022-11-30T03:09:18.498Z,19.05
2022-11-30T03:11:47.001Z,16.73
2022-11-30T03:14:15.458Z,16.77
2022-11-30T03:16:45.324Z,20.13
2022-11-30T03:19:14.350Z,18.83
2022-11-30T03:21:43.075Z,16.83
2022-11-30T03:24:11.605Z,18.25
2022-11-30T03:26:40.025Z,17.35
2022-11-30T03:29:08.486Z,16.52
2022-11-30T03:31:36.884Z,18.90
2022-11-30T03:34:06.915Z,17.10
2022-11-30T03:36:35.508Z,16.50
2022-11-30T03:39:04.751Z,17.83
2022-11-30T03:41:33.223Z,20.27
2022-11-30T03:44:02.217Z,15.90
2022-11-30T03:46:30.718Z,17.42
2022-11-30T03:48:59.070Z,16.65
2022-11-30T03:51:28.909Z,18.02
2022-11-30T03:53:57.605Z,19.90
2022-11-30T03:56:25.988Z,15.18
2022-11-30T03:58:54.453Z,16.70
2022-11-30T04:01:23.913Z,15.35
2022-11-30T04:03:52.754Z,17.00
2022-11-30T04:06:21.731Z,17.48
2022-11-30T04:08:51.551Z,16.52
2022-11-30T04:11:19.914Z,16.25
2022-11-30T04:13:48.600Z,16.25
2022-11-30T04:16:17.007Z,15.98
2022-11-30T04:18:45.493Z,14.55
2022-11-30T04:21:13.955Z,16.58
2022-11-30T04:23:42.457Z,17.75
2022-11-30T04:26:14.033Z,17.02
2022-11-30T04:28:42.640Z,15.57
2022-11-30T04:31:11.361Z,17.30
2022-11-30T04:33:39.697Z,16.52
2022-11-30T04:36:09.606Z,17.13
2022-11-30T04:38:38.305Z,16.30
2022-11-30T04:41:09.099Z,18.13
2022-11-30T04:43:39.027Z,16.15
2022-11-30T04:46:07.740Z,16.08
2022-11-30T04:48:36.409Z,17.35
2022-11-30T04:51:06.231Z,15.63
2022-11-30T04:53:34.650Z,15.70
2022-11-30T04:56:07.405Z,16.42
2022-11-30T04:58:36.058Z,15.57
2022-11-30T05:01:06.202Z,15.48
2022-11-30T05:03:34.616Z,13.75
2022-11-30T05:06:03.324Z,17.38
2022-11-30T05:08:31.676Z,16.92
2022-11-30T05:11:00.259Z,17.15
2022-11-30T05:13:28.743Z,14.63
2022-11-30T05:15:57.140Z,16.85
2022-11-30T05:18:27.281Z,14.23
2022-11-30T05:20:55.750Z,15.50
2022-11-30T05:23:24.323Z,17.52
2022-11-30T05:25:52.660Z,16.35
2022-11-30T05:28:21.351Z,17.50
2022-11-30T05:30:49.685Z,16.77
2022-11-30T05:33:18.031Z,19.02
2022-11-30T05:35:47.942Z,16.70
2022-11-30T05:38:16.316Z,17.27
2022-11-30T05:40:44.677Z,13.68
2022-11-30T05:43:13.273Z,15.68
2022-11-30T05:45:41.703Z,16.33
2022-11-30T05:48:10.142Z,16.67
2022-11-30T05:50:38.558Z,17.85
2022-11-30T05:53:08.383Z,16.80
2022-11-30T05:55:36.791Z,17.35
2022-11-30T05:58:05.331Z,29.98
2022-11-30T06:00:33.718Z,17.65
2022-11-30T06:03:02.392Z,16.73
2022-11-30T06:05:30.900Z,33.33
2022-11-30T06:08:00.791Z,33.30
2022-11-30T06:10:30.565Z,34.47
2022-11-30T06:12:59.494Z,36.55
2022-11-30T06:15:27.872Z,33.40
2022-11-30T06:17:57.422Z,47.80
2022-11-30T06:20:25.858Z,49.50
2022-11-30T06:22:54.225Z,49.72
2022-11-30T06:25:22.721Z,38.40
2022-11-30T06:27:52.624Z,46.95
2022-11-30T06:30:21.211Z,51.35
2022-11-30T06:32:50.519Z,44.83
2022-11-30T06:35:19.295Z,42.95
2022-11-30T06:37:47.630Z,42.10
2022-11-30T06:40:17.183Z,42.13
2022-11-30T06:42:45.807Z,42.92
2022-11-30T06:45:15.818Z,46.20
2022-11-30T06:47:44.213Z,43.17
2022-11-30T06:50:13.966Z,37.15
2022-11-30T06:52:42.265Z,50.08
2022-11-30T06:55:10.957Z,41.50
2022-11-30T06:57:39.483Z,48.45
2022-11-30T07:00:09.705Z,34.60
2022-11-30T07:02:39.829Z,37.20
2022-11-30T07:05:09.121Z,33.22
2022-11-30T07:07:37.504Z,33.40
2022-11-30T07:10:06.918Z,36.60
2022-11-30T07:12:36.636Z,31.92
2022-11-30T07:15:06.015Z,32.30
2022-11-30T07:17:34.371Z,33.15
2022-11-30T07:20:04.450Z,32.20
2022-11-30T07:22:32.821Z,44.42
2022-11-30T07:25:19.210Z,34.47
2022-11-30T07:27:47.723Z,31.33
2022-11-30T07:30:16.791Z,34.17
2022-11-30T07:32:45.532Z,32.70
2022-11-30T07:35:15.730Z,25.83
2022-11-30T07:37:44.069Z,28.55
2022-11-30T07:40:13.688Z,54.13
2022-11-30T07:42:42.542Z,67.78
2022-11-30T07:45:12.186Z,40.30
2022-11-30T07:47:40.509Z,33.50
2022-11-30T07:50:10.365Z,33.53
2022-11-30T07:52:40.092Z,33.13
2022-11-30T07:55:10.679Z,33.63
2022-11-30T07:57:39.068Z,28.00
2022-11-30T08:00:10.378Z,31.95
2022-11-30T08:02:38.886Z,34.47
2022-11-30T08:05:11.396Z,31.27
2022-11-30T08:07:41.236Z,30.80
2022-11-30T08:10:11.550Z,33.67
2022-11-30T08:12:39.922Z,29.17
2022-11-30T08:15:30.786Z,31.55
2022-11-30T08:18:05.365Z,28.95
2022-11-30T08:20:33.913Z,28.13
2022-11-30T08:23:03.657Z,26.30
2022-11-30T08:25:32.014Z,28.67
2022-11-30T08:28:00.681Z,29.60
2022-11-30T08:30:32.702Z,28.45
2022-11-30T08:33:01.363Z,30.92
2022-11-30T08:35:29.737Z,24.65
2022-11-30T08:37:58.145Z,26.58
2022-11-30T08:40:28.260Z,25.77
2022-11-30T08:42:56.774Z,25.52
2022-11-30T08:45:25.284Z,26.88
2022-11-30T08:47:55.329Z,27.13
2022-11-30T08:50:23.983Z,24.48
2022-11-30T08:52:54.246Z,26.02
2022-11-30T08:55:22.745Z,30.27
2022-11-30T08:57:52.727Z,25.23
2022-11-30T09:00:22.450Z,28.95
2022-11-30T09:02:50.869Z,35.13
2022-11-30T09:05:19.374Z,36.83
2022-11-30T09:07:47.937Z,27.95
2022-11-30T09:10:16.358Z,32.08
2022-11-30T09:12:45.051Z,27.50
2022-11-30T09:15:14.776Z,27.42
2022-11-30T09:17:43.336Z,32.28
2022-11-30T09:20:13.210Z,31.05
2022-11-30T09:22:42.739Z,30.55
2022-11-30T09:25:11.443Z,28.90
2022-11-30T09:27:40.044Z,26.70
2022-11-30T09:30:10.337Z,27.45
2022-11-30T09:32:40.060Z,24.77
2022-11-30T09:35:12.798Z,27.90
2022-11-30T09:37:41.573Z,26.33
2022-11-30T09:40:11.855Z,22.38
2022-11-30T09:42:52.964Z,26.83
2022-11-30T09:45:24.533Z,27.80
2022-11-30T09:48:48.253Z,26.40
2022-11-30T09:51:21.326Z,25.20
2022-11-30T09:53:52.612Z,27.08
2022-11-30T09:56:24.662Z,29.48
2022-11-30T09:58:55.863Z,24.42
2022-11-30T10:01:24.680Z,28.52
2022-11-30T10:03:54.431Z,31.05
2022-11-30T10:06:27.783Z,24.67
2022-11-30T10:09:15.020Z,37.30
2022-11-30T10:11:51.870Z,35.08
2022-11-30T10:14:46.135Z,27.42
2022-11-30T10:17:24.355Z,28.48
2022-11-30T10:20:24.219Z,27.00
2022-11-30T10:23:10.788Z,30.38
2022-11-30T10:25:45.545Z,27.55
2022-11-30T10:28:45.680Z,37.83
2022-11-30T10:31:11.057Z,91.63
2022-11-30T10:33:42.895Z,54.28
2022-11-30T10:36:15.151Z,71.78
2022-11-30T10:38:46.087Z,52.65
2022-11-30T10:41:16.719Z,77.47
2022-11-30T10:43:46.828Z,53.22
2022-11-30T10:46:20.523Z,63.63
2022-11-30T10:48:54.500Z,73.57
2022-11-30T10:51:24.331Z,78.50
2022-11-30T10:53:52.737Z,120.45
2022-11-30T10:56:21.161Z,109.63
2022-11-30T10:58:55.413Z,108.82
2022-11-30T11:01:35.273Z,84.05
2022-11-30T11:04:10.552Z,79.43
2022-11-30T11:06:43.708Z,76.88
2022-11-30T11:09:38.825Z,76.53
2022-11-30T11:12:08.366Z,72.10
2022-11-30T11:14:38.308Z,85.15
2022-11-30T11:17:08.159Z,75.68
2022-11-30T11:19:39.403Z,69.55
2022-11-30T11:22:17.642Z,72.43
2022-11-30T11:24:46.191Z,66.13
2022-11-30T11:27:24.900Z,76.72
2022-11-30T11:30:08.054Z,71.57
2022-11-30T11:32:36.438Z,69.78
2022-11-30T11:35:05.847Z,65.32
2022-11-30T11:37:38.403Z,66.88
2022-11-30T11:40:15.788Z,66.70
2022-11-30T11:42:48.488Z,69.63
2022-11-30T11:45:18.995Z,60.90
2022-11-30T11:47:49.161Z,59.40
2022-11-30T11:50:58.199Z,63.17
2022-11-30T11:53:25.211Z,59.05
2022-11-30T11:55:57.612Z,59.28
2022-11-30T11:58:34.363Z,56.90
2022-11-30T12:01:31.586Z,52.15
2022-11-30T12:04:13.897Z,54.60
2022-11-30T12:06:42.501Z,57.40
2022-11-30T12:09:16.326Z,57.47
2022-11-30T12:11:46.469Z,56.58
2022-11-30T12:14:16.779Z,55.40
2022-11-30T12:17:13.730Z,49.90
2022-11-30T12:19:46.629Z,51.60
2022-11-30T12:22:33.533Z,56.15
2022-11-30T12:25:22.965Z,49.63
2022-11-30T12:28:02.557Z,48.25
2022-11-30T12:30:36.424Z,51.95
2022-11-30T12:33:14.096Z,48.42
2022-11-30T12:35:52.214Z,43.55
2022-11-30T12:38:28.170Z,43.95
2022-11-30T12:41:02.199Z,44.78
2022-11-30T12:43:38.835Z,45.05
2022-11-30T12:46:11.287Z,44.75
2022-11-30T12:48:43.314Z,56.10
2022-11-30T12:51:18.038Z,44.00
2022-11-30T12:53:51.453Z,45.33
2022-11-30T12:56:30.664Z,46.22
2022-11-30T12:59:06.969Z,43.97
2022-11-30T13:01:49.912Z,38.35
2022-11-30T13:04:21.304Z,44.92
2022-11-30T13:06:52.696Z,38.97
2022-11-30T13:09:26.316Z,40.10
2022-11-30T13:11:59.101Z,44.90
2022-11-30T13:14:28.553Z,36.63
2022-11-30T13:17:02.118Z,43.40
2022-11-30T13:19:55.723Z,36.15
2022-11-30T13:22:27.503Z,46.17
2022-11-30T13:25:01.891Z,36.85
2022-11-30T13:27:34.030Z,42.67
2022-11-30T13:30:21.608Z,37.97
2022-11-30T13:32:58.710Z,34.78
2022-11-30T13:35:43.748Z,36.08
2022-11-30T13:38:36.366Z,37.38
2022-11-30T13:41:06.843Z,33.88
2022-11-30T13:43:40.493Z,38.33
2022-11-30T13:46:20.162Z,34.28
2022-11-30T13:48:48.765Z,34.88
2022-11-30T13:51:35.409Z,29.50
2022-11-30T13:54:43.640Z,29.95
2022-11-30T13:58:04.905Z,31.40
2022-11-30T14:01:01.555Z,36.15
2022-11-30T14:03:31.484Z,36.63
2022-11-30T14:06:00.227Z,33.63
2022-11-30T14:08:46.497Z,30.73
2022-11-30T14:11:41.227Z,29.20
2022-11-30T14:14:45.366Z,33.22
2022-11-30T14:17:25.755Z,33.00
2022-11-30T14:19:56.547Z,27.58
2022-11-30T14:22:25.018Z,30.48
2022-11-30T14:24:53.559Z,30.65
2022-11-30T14:27:24.559Z,30.88
2022-11-30T14:29:55.332Z,28.02
2022-11-30T14:32:44.001Z,30.77
2022-11-30T14:35:14.185Z,33.33
2022-11-30T14:37:45.813Z,32.90
2022-11-30T14:40:20.055Z,28.25
2022-11-30T14:42:50.806Z,25.13
2022-11-30T14:45:27.175Z,24.80
2022-11-30T14:48:07.612Z,29.27
2022-11-30T14:50:36.309Z,26.50
2022-11-30T14:53:19.688Z,25.83
2022-11-30T14:55:52.721Z,28.38
2022-11-30T14:58:25.977Z,28.02
2022-11-30T15:00:55.000Z,28.20
2022-11-30T15:03:27.659Z,20.92
2022-11-30T15:05:57.869Z,29.05
2022-11-30T15:08:27.923Z,27.02
2022-11-30T15:10:57.322Z,22.90
2022-11-30T15:13:25.894Z,22.60
2022-11-30T15:15:55.499Z,27.35
2022-11-30T15:18:24.261Z,28.15
2022-11-30T15:20:56.849Z,30.27
2022-11-30T15:23:25.513Z,27.15
2022-11-30T15:25:56.944Z,22.88
2022-11-30T15:28:28.470Z,27.98
2022-11-30T15:30:57.993Z,25.65
2022-11-30T15:33:29.677Z,23.02
2022-11-30T15:36:28.288Z,22.17
2022-11-30T15:38:51.601Z,29.00
2022-11-30T15:41:22.442Z,25.60
2022-11-30T15:43:53.005Z,22.67
2022-11-30T15:46:34.239Z,24.90
2022-11-30T15:49:17.189Z,23.85
2022-11-30T15:51:53.237Z,23.70
2022-11-30T15:54:44.404Z,24.88
2022-11-30T15:57:13.481Z,24.27
2022-11-30T15:59:42.002Z,24.67
2022-11-30T16:02:27.351Z,25.08
2022-11-30T16:05:25.787Z,24.13
2022-11-30T16:07:57.309Z,23.15
2022-11-30T16:10:27.877Z,25.27
2022-11-30T16:12:56.347Z,23.08
2022-11-30T16:15:26.274Z,23.38
2022-11-30T16:17:55.076Z,22.45
2022-11-30T16:20:24.164Z,23.25
2022-11-30T16:22:52.972Z,23.67
2022-11-30T16:25:24.774Z,24.77
2022-11-30T16:27:53.376Z,23.27
2022-11-30T16:30:23.463Z,22.60
2022-11-30T16:32:52.378Z,23.92
2022-11-30T16:35:23.287Z,25.25
2022-11-30T16:37:51.996Z,19.83
2022-11-30T16:40:21.320Z,21.15
2022-11-30T16:42:52.120Z,22.95
2022-11-30T16:45:21.958Z,20.80
2022-11-30T16:47:50.534Z,24.02
2022-11-30T16:50:19.586Z,23.80
2022-11-30T16:52:48.067Z,23.85
2022-11-30T16:55:17.530Z,21.20
2022-11-30T16:57:45.978Z,22.42
2022-11-30T17:00:18.379Z,25.75
2022-11-30T17:02:50.341Z,23.65
2022-11-30T17:05:19.301Z,19.33
2022-11-30T17:07:47.697Z,24.42
2022-11-30T17:10:16.360Z,22.05
2022-11-30T17:12:44.755Z,21.45
2022-11-30T17:15:16.612Z,20.25
2022-11-30T17:17:45.188Z,22.33
2022-11-30T17:20:15.119Z,28.13
2022-11-30T17:22:44.099Z,28.63
2022-11-30T17:25:16.238Z,25.00
2022-11-30T17:27:44.861Z,24.05
2022-11-30T17:30:16.377Z,23.83
2022-11-30T17:32:44.790Z,24.65
2022-11-30T17:35:13.112Z,23.75
2022-11-30T17:37:41.571Z,23.42
2022-11-30T17:40:13.102Z,21.20
2022-11-30T17:42:41.796Z,21.67
2022-11-30T17:45:11.200Z,23.95
2022-11-30T17:47:40.914Z,19.10
2022-11-30T17:50:10.785Z,25.90
2022-11-30T17:52:39.110Z,21.35
2022-11-30T17:55:09.055Z,23.70
2022-11-30T17:57:39.685Z,20.73
2022-11-30T18:00:09.858Z,21.17
2022-11-30T18:02:38.314Z,24.23
2022-11-30T18:05:09.309Z,22.45
2022-11-30T18:07:37.948Z,20.60
2022-11-30T18:10:08.284Z,20.20
2022-11-30T18:12:36.623Z,19.77
2022-11-30T18:15:05.606Z,24.00
2022-11-30T18:17:34.122Z,21.45
2022-11-30T18:20:02.524Z,19.10
2022-11-30T18:22:32.953Z,20.80
2022-11-30T18:25:01.531Z,22.25
2022-11-30T18:27:29.908Z,21.73
2022-11-30T18:29:58.412Z,23.17
2022-11-30T18:32:26.908Z,20.52
2022-11-30T18:34:55.268Z,22.13
2022-11-30T18:37:23.750Z,18.40
2022-11-30T18:39:53.657Z,19.35
2022-11-30T18:42:22.774Z,21.60
2022-11-30T18:44:51.267Z,21.35
2022-11-30T18:47:20.048Z,32.60
2022-11-30T18:49:48.420Z,22.25
2022-11-30T18:52:16.911Z,26.13
2022-11-30T18:54:45.705Z,20.63
2022-11-30T18:57:15.856Z,26.50
2022-11-30T18:59:44.229Z,21.08
2022-11-30T19:02:12.916Z,20.15
2022-11-30T19:04:41.324Z,24.05
2022-11-30T19:07:09.741Z,24.45
2022-11-30T19:09:38.400Z,22.75
2022-11-30T19:12:07.326Z,21.10
2022-11-30T19:14:37.906Z,20.67
2022-11-30T19:17:06.625Z,25.13
2022-11-30T19:19:35.195Z,21.50
2022-11-30T19:22:03.689Z,18.98
2022-11-30T19:24:32.302Z,20.38
2022-11-30T19:27:00.780Z,18.52
2022-11-30T19:29:29.213Z,24.17
2022-11-30T19:31:59.296Z,27.58
2022-11-30T19:34:27.874Z,26.40
2022-11-30T19:36:56.674Z,24.40
2022-11-30T19:39:25.278Z,22.33
2022-11-30T19:41:53.799Z,20.58
2022-11-30T19:44:22.291Z,21.38
2022-11-30T19:46:50.826Z,21.75
2022-11-30T19:49:20.716Z,24.00
2022-11-30T19:51:51.761Z,25.85
2022-11-30T19:54:20.575Z,24.13
2022-11-30T19:56:49.094Z,19.63
2022-11-30T19:59:17.769Z,24.45
2022-11-30T20:01:46.544Z,21.10
2022-11-30T20:04:14.974Z,23.17
2022-11-30T20:06:44.776Z,18.73
2022-11-30T20:09:13.526Z,22.73
2022-11-30T20:11:44.079Z,22.90
2022-11-30T20:14:16.567Z,18.38
2022-11-30T20:16:45.350Z,23.15
2022-11-30T20:19:14.252Z,18.88
2022-11-30T20:21:44.106Z,18.00
2022-11-30T20:24:13.520Z,23.42
2022-11-30T20:26:44.906Z,21.40
2022-11-30T20:29:14.787Z,24.63
2022-11-30T20:31:43.712Z,17.98
2022-11-30T20:34:12.543Z,20.70
2022-11-30T20:36:41.189Z,23.98
2022-11-30T20:39:11.878Z,19.25
2022-11-30T20:41:40.411Z,17.38
2022-11-30T20:44:09.008Z,19.05
2022-11-30T20:46:37.646Z,18.50
2022-11-30T20:49:14.277Z,16.40
2022-11-30T20:51:43.196Z,16.25
2022-11-30T20:54:13.564Z,16.88
2022-11-30T20:56:42.338Z,16.58
2022-11-30T20:59:14.841Z,16.02
2022-11-30T21:01:43.947Z,17.05
2022-11-30T21:04:12.783Z,16.50
2022-11-30T21:06:45.644Z,15.80
2022-11-30T21:09:16.307Z,18.52
2022-11-30T21:11:44.758Z,16.15
2022-11-30T21:14:13.389Z,17.73
2022-11-30T21:16:42.432Z,17.27
2022-11-30T21:19:11.943Z,23.58
2022-11-30T21:21:40.359Z,23.98
2022-11-30T21:24:09.870Z,25.45
2022-11-30T21:26:41.468Z,19.02
2022-11-30T21:29:13.144Z,20.75
2022-11-30T21:31:41.863Z,20.65
2022-11-30T21:34:10.314Z,22.02
2022-11-30T21:36:38.810Z,20.10
2022-11-30T21:39:07.670Z,19.85
2022-11-30T21:41:37.163Z,20.00
2022-11-30T21:44:07.274Z,18.05
2022-11-30T21:46:35.824Z,22.25
2022-11-30T21:49:04.458Z,20.15
2022-11-30T21:51:32.830Z,20.38
2022-11-30T21:54:02.453Z,20.17
2022-11-30T21:56:32.537Z,17.05
2022-11-30T21:59:00.951Z,19.33
2022-11-30T22:01:32.073Z,19.30
2022-11-30T22:04:00.936Z,18.95
2022-11-30T22:06:30.860Z,17.92
2022-11-30T22:09:02.929Z,18.35
2022-11-30T22:11:32.027Z,17.33
2022-11-30T22:14:01.539Z,18.05
2022-11-30T22:16:35.917Z,19.20
2022-11-30T22:19:05.447Z,16.50
2022-11-30T22:21:33.851Z,20.40
2022-11-30T22:24:03.313Z,17.50
2022-11-30T22:26:33.112Z,16.27
2022-11-30T22:29:03.335Z,18.23
2022-11-30T22:31:34.590Z,17.30
2022-11-30T22:34:03.019Z,18.13
2022-11-30T22:36:32.643Z,16.52
2022-11-30T22:39:02.238Z,22.35
2022-11-30T22:41:31.000Z,19.35
2022-11-30T22:43:59.518Z,17.77
2022-11-30T22:46:29.340Z,17.83
2022-11-30T22:49:00.389Z,18.35
2022-11-30T22:51:30.505Z,17.27
2022-11-30T22:53:59.454Z,17.17
2022-11-30T22:56:29.512Z,16.17
2022-11-30T22:59:00.022Z,18.52
2022-11-30T23:01:29.756Z,18.27
2022-11-30T23:04:03.768Z,18.70
2022-11-30T23:06:32.429Z,17.15
2022-11-30T23:09:01.068Z,15.98
2022-11-30T23:11:29.832Z,19.65
2022-11-30T23:13:58.204Z,21.90
2022-11-30T23:16:26.881Z,18.38
2022-11-30T23:18:57.311Z,17.40
2022-11-30T23:21:30.111Z,17.98
2022-11-30T23:24:00.558Z,17.35
2022-11-30T23:26:30.666Z,19.42
2022-11-30T23:29:01.249Z,15.57
2022-11-30T23:31:34.242Z,17.63
2022-11-30T23:34:05.592Z,18.52
2022-11-30T23:36:35.492Z,15.27
2022-11-30T23:39:05.196Z,14.73
2022-11-30T23:41:33.634Z,16.23
2022-11-30T23:44:01.967Z,16.50
2022-11-30T23:46:30.453Z,17.08
2022-11-30T23:48:58.857Z,14.57
2022-11-30T23:51:27.299Z,13.50
2022-11-30T23:53:57.202Z,15.38
2022-11-30T23:56:25.604Z,14.75
2022-11-30T23:58:54.061Z,16.20
